ZW-0030 weather

Rukomeshe Research Station Airstrip
Mashonaland West Province, Zimbabwe

Public forecast

Using degrees Celsius for public forecast. Weather courtesy of forecast.io.

Closest aviation weather report (METAR) to Rukomeshe Research Station Airstrip

Report is more than 6 hours old.

Closest report is Kariba International Airport, 37.9 nm (70.2 km) SW. Retrieved 2019/11/01 10:00 UTC (11 days ago):

FVKB 011000Z 15004KT CAVOK 38/17 Q1014 NOSIG

Closest aviation forecast (TAF) to Rukomeshe Research Station Airstrip

Forecast is more than 12 hours old.

Closest forecast is Royal Zambesi Lodge Airstrip, 26.2 nm (48.4 km) NNW. Retrieved 2019-11-12 00:00 UTC (15 hours ago):

TAF FLRZ 112200Z 1200/1306 05012KT 9000 -TSRA FEW038CB BECMG 1206/1208 05010KT 9000 BKN025 BECMG 1209/1211 BKN040TCU PROB40 TEMPO 1214/1222 -TSRA FEW040CB BKN100